sensor_id;sensor_type;location;lat;lon;timestamp;pressure;altitude;pressure_sealevel;temperature;humidity
53916;BME280;39827;49.652;18.770;2024-03-08T00:00:14;75212.03;;;-149.71;65.87
53916;BME280;39827;49.652;18.770;2024-03-08T00:02:41;75214.06;;;-149.71;65.32
53916;BME280;39827;49.652;18.770;2024-03-08T00:05:07;75204.00;;;-149.71;65.66
53916;BME280;39827;49.652;18.770;2024-03-08T00:07:34;75232.13;;;-149.71;65.93
53916;BME280;39827;49.652;18.770;2024-03-08T00:10:00;75244.19;;;-149.71;65.73
53916;BME280;39827;49.652;18.770;2024-03-08T00:12:25;75226.09;;;-149.71;64.80
53916;BME280;39827;49.652;18.770;2024-03-08T00:14:54;75218.06;;;-149.71;65.42
53916;BME280;39827;49.652;18.770;2024-03-08T00:17:20;75230.13;;;-149.71;65.35
53916;BME280;39827;49.652;18.770;2024-03-08T00:19:48;75224.09;;;-149.71;64.38
53916;BME280;39827;49.652;18.770;2024-03-08T00:22:15;75222.09;;;-149.71;64.23
53916;BME280;39827;49.652;18.770;2024-03-08T00:24:41;75220.09;;;-149.71;64.58
53916;BME280;39827;49.652;18.770;2024-03-08T00:27:06;75222.09;;;-149.71;65.08
53916;BME280;39827;49.652;18.770;2024-03-08T00:29:31;75228.13;;;-149.71;65.50
53916;BME280;39827;49.652;18.770;2024-03-08T00:31:57;75226.09;;;-149.71;66.87
53916;BME280;39827;49.652;18.770;2024-03-08T00:34:23;75240.19;;;-149.71;67.33
53916;BME280;39827;49.652;18.770;2024-03-08T00:36:48;75240.19;;;-149.71;67.34
53916;BME280;39827;49.652;18.770;2024-03-08T00:39:14;75236.16;;;-149.71;67.26
53916;BME280;39827;49.652;18.770;2024-03-08T00:41:39;75244.19;;;-149.71;67.39
53916;BME280;39827;49.652;18.770;2024-03-08T00:44:05;75260.28;;;-149.71;67.46
53916;BME280;39827;49.652;18.770;2024-03-08T00:46:30;75264.28;;;-149.71;67.87
53916;BME280;39827;49.652;18.770;2024-03-08T00:48:56;75252.22;;;-149.71;67.66
53916;BME280;39827;49.652;18.770;2024-03-08T00:51:22;75272.34;;;-149.71;68.00
53916;BME280;39827;49.652;18.770;2024-03-08T00:53:47;75294.44;;;-149.71;68.54
53916;BME280;39827;49.652;18.770;2024-03-08T00:56:13;75304.50;;;-149.71;69.42
53916;BME280;39827;49.652;18.770;2024-03-08T00:58:38;75326.59;;;-149.71;69.71
53916;BME280;39827;49.652;18.770;2024-03-08T01:01:04;75324.59;;;-149.71;69.67
53916;BME280;39827;49.652;18.770;2024-03-08T01:03:30;75322.56;;;-149.71;69.94
53916;BME280;39827;49.652;18.770;2024-03-08T01:06:00;75328.59;;;-149.71;70.08
53916;BME280;39827;49.652;18.770;2024-03-08T01:08:28;75348.69;;;-149.71;71.01
53916;BME280;39827;49.652;18.770;2024-03-08T01:10:53;75370.81;;;-149.71;71.88
53916;BME280;39827;49.652;18.770;2024-03-08T01:13:19;75378.84;;;-149.71;72.75
53916;BME280;39827;49.652;18.770;2024-03-08T01:15:45;75384.88;;;-149.71;73.15
53916;BME280;39827;49.652;18.770;2024-03-08T01:18:11;75402.97;;;-149.71;73.89
53916;BME280;39827;49.652;18.770;2024-03-08T01:20:36;75429.09;;;-149.71;75.25
53916;BME280;39827;49.652;18.770;2024-03-08T01:23:02;75447.19;;;-149.71;75.92
53916;BME280;39827;49.652;18.770;2024-03-08T01:25:27;75453.19;;;-149.71;76.42
53916;BME280;39827;49.652;18.770;2024-03-08T01:27:52;75483.34;;;-149.71;77.16
53916;BME280;39827;49.652;18.770;2024-03-08T01:30:19;75479.34;;;-149.71;77.11
53916;BME280;39827;49.652;18.770;2024-03-08T01:32:44;75451.19;;;-149.71;76.67
53916;BME280;39827;49.652;18.770;2024-03-08T01:35:09;75445.16;;;-149.71;76.50
53916;BME280;39827;49.652;18.770;2024-03-08T01:37:35;75451.19;;;-149.71;76.44
53916;BME280;39827;49.652;18.770;2024-03-08T01:40:01;75449.19;;;-149.71;76.15
53916;BME280;39827;49.652;18.770;2024-03-08T01:42:26;75481.34;;;-149.71;76.87
53916;BME280;39827;49.652;18.770;2024-03-08T01:44:51;75471.28;;;-149.71;76.15
53916;BME280;39827;49.652;18.770;2024-03-08T01:47:17;75481.34;;;-149.71;76.35
53916;BME280;39827;49.652;18.770;2024-03-08T01:49:43;75497.41;;;-149.71;76.26
53916;BME280;39827;49.652;18.770;2024-03-08T01:52:09;75501.44;;;-149.71;76.82
53916;BME280;39827;49.652;18.770;2024-03-08T01:54:36;75485.38;;;-149.71;77.25
53916;BME280;39827;49.652;18.770;2024-03-08T01:57:02;75483.34;;;-149.71;76.43
53916;BME280;39827;49.652;18.770;2024-03-08T01:59:28;75477.31;;;-149.71;76.51
53916;BME280;39827;49.652;18.770;2024-03-08T02:01:55;75523.53;;;-149.71;77.95
53916;BME280;39827;49.652;18.770;2024-03-08T02:04:21;75499.44;;;-149.71;77.56
53916;BME280;39827;49.652;18.770;2024-03-08T02:06:46;75507.47;;;-149.71;77.68
53916;BME280;39827;49.652;18.770;2024-03-08T02:09:14;75523.53;;;-149.71;78.41
53916;BME280;39827;49.652;18.770;2024-03-08T02:11:41;75505.47;;;-149.71;78.34
53916;BME280;39827;49.652;18.770;2024-03-08T02:14:06;75529.56;;;-149.71;78.69
53916;BME280;39827;49.652;18.770;2024-03-08T02:16:32;75537.63;;;-149.71;79.31
53916;BME280;39827;49.652;18.770;2024-03-08T02:18:58;75553.69;;;-149.71;79.27
53916;BME280;39827;49.652;18.770;2024-03-08T02:21:24;75547.66;;;-149.71;79.61
53916;BME280;39827;49.652;18.770;2024-03-08T02:23:49;75557.72;;;-149.71;80.20
53916;BME280;39827;49.652;18.770;2024-03-08T02:26:17;75557.72;;;-149.71;80.52
53916;BME280;39827;49.652;18.770;2024-03-08T02:28:44;75559.72;;;-149.71;80.88
53916;BME280;39827;49.652;18.770;2024-03-08T02:31:10;75549.66;;;-149.71;80.81
53916;BME280;39827;49.652;18.770;2024-03-08T02:33:35;75537.63;;;-149.71;80.10
53916;BME280;39827;49.652;18.770;2024-03-08T02:36:01;75545.66;;;-149.71;79.92
53916;BME280;39827;49.652;18.770;2024-03-08T02:38:26;75539.63;;;-149.71;80.17
53916;BME280;39827;49.652;18.770;2024-03-08T02:40:53;75533.59;;;-149.71;80.28
53916;BME280;39827;49.652;18.770;2024-03-08T02:43:20;75531.59;;;-149.71;79.98
53916;BME280;39827;49.652;18.770;2024-03-08T02:45:50;75537.63;;;-149.71;80.25
53916;BME280;39827;49.652;18.770;2024-03-08T02:48:15;75537.63;;;-149.71;80.36
53916;BME280;39827;49.652;18.770;2024-03-08T02:50:44;75539.63;;;-149.71;80.73
53916;BME280;39827;49.652;18.770;2024-03-08T02:53:10;75537.63;;;-149.71;80.19
53916;BME280;39827;49.652;18.770;2024-03-08T02:55:39;75533.59;;;-149.71;80.36
53916;BME280;39827;49.652;18.770;2024-03-08T02:58:06;75537.63;;;-149.71;80.11
53916;BME280;39827;49.652;18.770;2024-03-08T03:00:35;75565.75;;;-149.71;80.74
53916;BME280;39827;49.652;18.770;2024-03-08T03:03:00;75553.69;;;-149.71;80.63
53916;BME280;39827;49.652;18.770;2024-03-08T03:05:28;75557.72;;;-149.71;80.62
53916;BME280;39827;49.652;18.770;2024-03-08T03:07:55;75577.81;;;-149.71;81.25
53916;BME280;39827;49.652;18.770;2024-03-08T03:10:20;75585.84;;;-149.71;81.90
53916;BME280;39827;49.652;18.770;2024-03-08T03:12:47;75593.88;;;-149.71;82.16
53916;BME280;39827;49.652;18.770;2024-03-08T03:15:14;75585.84;;;-149.71;82.37
53916;BME280;39827;49.652;18.770;2024-03-08T03:17:46;75577.81;;;-149.71;82.35
53916;BME280;39827;49.652;18.770;2024-03-08T03:20:11;75583.84;;;-149.71;82.56
53916;BME280;39827;49.652;18.770;2024-03-08T03:22:47;75593.88;;;-149.71;82.48
53916;BME280;39827;49.652;18.770;2024-03-08T03:25:17;75591.88;;;-149.71;82.63
53916;BME280;39827;49.652;18.770;2024-03-08T03:27:49;75589.88;;;-149.71;81.97
53916;BME280;39827;49.652;18.770;2024-03-08T03:30:14;75573.78;;;-149.71;81.63
53916;BME280;39827;49.652;18.770;2024-03-08T03:32:47;75583.84;;;-149.71;81.36
53916;BME280;39827;49.652;18.770;2024-03-08T03:35:13;75581.84;;;-149.71;82.29
53916;BME280;39827;49.652;18.770;2024-03-08T03:37:40;75577.81;;;-149.71;82.37
53916;BME280;39827;49.652;18.770;2024-03-08T03:40:08;75571.78;;;-149.71;82.73
53916;BME280;39827;49.652;18.770;2024-03-08T03:42:34;75567.75;;;-149.71;82.22
53916;BME280;39827;49.652;18.770;2024-03-08T03:44:59;75581.84;;;-149.71;82.37
53916;BME280;39827;49.652;18.770;2024-03-08T03:47:25;75589.88;;;-149.71;82.61
53916;BME280;39827;49.652;18.770;2024-03-08T03:49:52;75587.84;;;-149.71;82.62
53916;BME280;39827;49.652;18.770;2024-03-08T03:52:18;75603.94;;;-149.71;82.79
53916;BME280;39827;49.652;18.770;2024-03-08T03:54:44;75622.03;;;-149.71;83.72
53916;BME280;39827;49.652;18.770;2024-03-08T03:57:09;75616.00;;;-149.71;84.15
53916;BME280;39827;49.652;18.770;2024-03-08T03:59:34;75620.00;;;-149.71;84.05
53916;BME280;39827;49.652;18.770;2024-03-08T04:02:00;75618.00;;;-149.71;84.10
53916;BME280;39827;49.652;18.770;2024-03-08T04:04:25;75626.03;;;-149.71;84.53
53916;BME280;39827;49.652;18.770;2024-03-08T04:06:51;75622.03;;;-149.71;84.54
53916;BME280;39827;49.652;18.770;2024-03-08T04:09:17;75616.00;;;-149.71;84.35
53916;BME280;39827;49.652;18.770;2024-03-08T04:11:44;75607.97;;;-149.71;84.22
53916;BME280;39827;49.652;18.770;2024-03-08T04:14:10;75614.00;;;-149.71;84.94
53916;BME280;39827;49.652;18.770;2024-03-08T04:16:35;75618.00;;;-149.71;84.75
53916;BME280;39827;49.652;18.770;2024-03-08T04:19:01;75632.06;;;-149.71;85.06
53916;BME280;39827;49.652;18.770;2024-03-08T04:21:30;75636.09;;;-149.71;85.29
53916;BME280;39827;49.652;18.770;2024-03-08T04:23:55;75628.06;;;-149.71;85.71
53916;BME280;39827;49.652;18.770;2024-03-08T04:26:21;75622.03;;;-149.71;85.31
53916;BME280;39827;49.652;18.770;2024-03-08T04:28:46;75616.00;;;-149.71;85.23
53916;BME280;39827;49.652;18.770;2024-03-08T04:31:12;75607.97;;;-149.71;84.66
53916;BME280;39827;49.652;18.770;2024-03-08T04:33:37;75609.97;;;-149.71;84.83
53916;BME280;39827;49.652;18.770;2024-03-08T04:36:04;75628.06;;;-149.71;83.84
53916;BME280;39827;49.652;18.770;2024-03-08T04:38:30;75634.09;;;-149.71;84.31
53916;BME280;39827;49.652;18.770;2024-03-08T04:40:56;75611.97;;;-149.71;84.30
53916;BME280;39827;49.652;18.770;2024-03-08T04:43:22;75611.97;;;-149.71;84.55
53916;BME280;39827;49.652;18.770;2024-03-08T04:45:50;75622.03;;;-149.71;84.56
53916;BME280;39827;49.652;18.770;2024-03-08T04:48:16;75632.06;;;-149.71;84.49
53916;BME280;39827;49.652;18.770;2024-03-08T04:50:41;75634.09;;;-149.71;84.96
53916;BME280;39827;49.652;18.770;2024-03-08T04:53:07;75620.00;;;-149.71;84.46
53916;BME280;39827;49.652;18.770;2024-03-08T04:55:34;75628.06;;;-149.71;84.40
53916;BME280;39827;49.652;18.770;2024-03-08T04:57:59;75644.13;;;-149.71;85.08
53916;BME280;39827;49.652;18.770;2024-03-08T05:00:24;75650.16;;;-149.71;85.00
53916;BME280;39827;49.652;18.770;2024-03-08T05:02:50;75654.19;;;-149.71;85.24
53916;BME280;39827;49.652;18.770;2024-03-08T05:05:18;75670.25;;;-149.71;86.09
53916;BME280;39827;49.652;18.770;2024-03-08T05:07:44;75658.19;;;-149.71;85.44
53916;BME280;39827;49.652;18.770;2024-03-08T05:10:11;75652.19;;;-149.71;85.16
53916;BME280;39827;49.652;18.770;2024-03-08T05:12:36;75658.19;;;-149.71;84.58
53916;BME280;39827;49.652;18.770;2024-03-08T05:15:04;75648.16;;;-149.71;84.75
53916;BME280;39827;49.652;18.770;2024-03-08T05:17:30;75642.13;;;-149.71;84.84
53916;BME280;39827;49.652;18.770;2024-03-08T05:19:55;75654.19;;;-149.71;85.31
53916;BME280;39827;49.652;18.770;2024-03-08T05:22:21;75658.19;;;-149.71;85.62
53916;BME280;39827;49.652;18.770;2024-03-08T05:24:46;75642.13;;;-149.71;85.27
53916;BME280;39827;49.652;18.770;2024-03-08T05:27:12;75642.13;;;-149.71;84.22
53916;BME280;39827;49.652;18.770;2024-03-08T05:29:38;75648.16;;;-149.71;84.65
53916;BME280;39827;49.652;18.770;2024-03-08T05:32:03;75656.19;;;-149.71;85.56
53916;BME280;39827;49.652;18.770;2024-03-08T05:34:29;75658.19;;;-149.71;85.09
53916;BME280;39827;49.652;18.770;2024-03-08T05:36:55;75640.13;;;-149.71;84.91
53916;BME280;39827;49.652;18.770;2024-03-08T05:39:20;75632.06;;;-149.71;85.02
53916;BME280;39827;49.652;18.770;2024-03-08T05:41:46;75636.09;;;-149.71;84.73
53916;BME280;39827;49.652;18.770;2024-03-08T05:44:12;75660.22;;;-149.71;85.15
53916;BME280;39827;49.652;18.770;2024-03-08T05:46:38;75652.19;;;-149.71;85.42
53916;BME280;39827;49.652;18.770;2024-03-08T05:49:04;75642.13;;;-149.71;85.20
53916;BME280;39827;49.652;18.770;2024-03-08T05:51:34;75632.06;;;-149.71;84.00
53916;BME280;39827;49.652;18.770;2024-03-08T05:54:01;75616.00;;;-149.71;83.47
53916;BME280;39827;49.652;18.770;2024-03-08T05:56:36;75603.94;;;-149.71;82.86
53916;BME280;39827;49.652;18.770;2024-03-08T05:59:02;75593.88;;;-149.71;83.04
53916;BME280;39827;49.652;18.770;2024-03-08T06:01:28;75599.91;;;-149.71;83.19
53916;BME280;39827;49.652;18.770;2024-03-08T06:03:55;75595.91;;;-149.71;82.77
53916;BME280;39827;49.652;18.770;2024-03-08T06:06:24;75575.81;;;-149.71;82.60
53916;BME280;39827;49.652;18.770;2024-03-08T06:08:50;75581.84;;;-149.71;81.63
53916;BME280;39827;49.652;18.770;2024-03-08T06:11:17;75593.88;;;-149.71;81.92
53916;BME280;39827;49.652;18.770;2024-03-08T06:13:44;75571.78;;;-149.71;81.32
53916;BME280;39827;49.652;18.770;2024-03-08T06:16:09;75577.81;;;-149.71;81.04
53916;BME280;39827;49.652;18.770;2024-03-08T06:18:35;75569.78;;;-149.71;80.94
53916;BME280;39827;49.652;18.770;2024-03-08T06:21:05;75573.78;;;-149.71;80.70
53916;BME280;39827;49.652;18.770;2024-03-08T06:23:34;75553.69;;;-149.71;80.64
53916;BME280;39827;49.652;18.770;2024-03-08T06:26:07;75549.66;;;-149.71;80.21
53916;BME280;39827;49.652;18.770;2024-03-08T06:28:33;75547.66;;;-149.71;80.18
53916;BME280;39827;49.652;18.770;2024-03-08T06:31:00;75535.59;;;-149.71;80.20
53916;BME280;39827;49.652;18.770;2024-03-08T06:33:25;75527.56;;;-149.71;79.55
53916;BME280;39827;49.652;18.770;2024-03-08T06:35:52;75501.44;;;-149.71;78.80
53916;BME280;39827;49.652;18.770;2024-03-08T06:38:17;75505.47;;;-149.71;78.30
53916;BME280;39827;49.652;18.770;2024-03-08T06:40:43;75491.38;;;-149.71;78.37
53916;BME280;39827;49.652;18.770;2024-03-08T06:43:09;75479.34;;;-149.71;78.32
53916;BME280;39827;49.652;18.770;2024-03-08T06:45:36;75455.22;;;-149.71;78.17
53916;BME280;39827;49.652;18.770;2024-03-08T06:48:03;75447.19;;;-149.71;78.50
53916;BME280;39827;49.652;18.770;2024-03-08T06:50:28;75433.09;;;-149.71;78.58
53916;BME280;39827;49.652;18.770;2024-03-08T06:52:54;75406.97;;;-149.71;78.07
53916;BME280;39827;49.652;18.770;2024-03-08T06:55:22;75324.59;;;-149.71;77.32
53916;BME280;39827;49.652;18.770;2024-03-08T06:57:47;75085.44;;;-149.71;71.45
53916;BME280;39827;49.652;18.770;2024-03-08T07:00:13;74950.81;;;-149.71;65.24
53916;BME280;39827;49.652;18.770;2024-03-08T07:02:43;74868.41;;;-149.71;65.12
53916;BME280;39827;49.652;18.770;2024-03-08T07:05:11;74790.03;;;-149.71;62.36
53916;BME280;39827;49.652;18.770;2024-03-08T07:07:37;74697.63;;;-149.71;57.11
53916;BME280;39827;49.652;18.770;2024-03-08T07:10:03;74627.28;;;-149.71;53.95
53916;BME280;39827;49.652;18.770;2024-03-08T07:12:29;74601.16;;;-149.71;52.53
53916;BME280;39827;49.652;18.770;2024-03-08T07:14:55;74573.03;;;-149.71;50.29
53916;BME280;39827;49.652;18.770;2024-03-08T07:17:21;74558.97;;;-149.71;49.92
53916;BME280;39827;49.652;18.770;2024-03-08T07:19:46;74482.63;;;-149.71;49.35
53916;BME280;39827;49.652;18.770;2024-03-08T07:22:11;74402.25;;;-149.71;47.60
53916;BME280;39827;49.652;18.770;2024-03-08T07:24:37;74390.19;;;-149.71;46.81
53916;BME280;39827;49.652;18.770;2024-03-08T07:27:21;74287.72;;;-149.71;45.15
53916;BME280;39827;49.652;18.770;2024-03-08T07:29:46;74259.59;;;-149.71;43.26
53916;BME280;39827;49.652;18.770;2024-03-08T07:32:12;74199.31;;;-149.71;42.31
53916;BME280;39827;49.652;18.770;2024-03-08T07:34:48;74209.38;;;-149.71;42.03
53916;BME280;39827;49.652;18.770;2024-03-08T07:37:16;74106.91;;;-149.71;40.05
53916;BME280;39827;49.652;18.770;2024-03-08T07:39:41;74094.84;;;-149.71;39.50
53916;BME280;39827;49.652;18.770;2024-03-08T07:42:07;74147.09;;;-149.71;39.85
53916;BME280;39827;49.652;18.770;2024-03-08T07:44:32;74116.94;;;-149.71;40.26
53916;BME280;39827;49.652;18.770;2024-03-08T07:46:58;73974.31;;;-149.71;37.70
53916;BME280;39827;49.652;18.770;2024-03-08T07:49:24;73932.13;;;-149.71;37.47
53916;BME280;39827;49.652;18.770;2024-03-08T07:51:50;73988.38;;;-149.71;38.22
53916;BME280;39827;49.652;18.770;2024-03-08T07:54:15;73990.38;;;-149.71;38.57
53916;BME280;39827;49.652;18.770;2024-03-08T07:56:41;73883.91;;;-149.71;37.45
53916;BME280;39827;49.652;18.770;2024-03-08T07:59:07;73944.19;;;-149.71;38.19
53916;BME280;39827;49.652;18.770;2024-03-08T08:01:33;73883.91;;;-149.71;37.21
53916;BME280;39827;49.652;18.770;2024-03-08T08:04:01;73904.00;;;-149.71;37.26
53916;BME280;39827;49.652;18.770;2024-03-08T08:06:27;73940.16;;;-149.71;37.31
53916;BME280;39827;49.652;18.770;2024-03-08T08:08:53;73924.09;;;-149.71;37.49
53916;BME280;39827;49.652;18.770;2024-03-08T08:11:19;73865.81;;;-149.71;36.77
53916;BME280;39827;49.652;18.770;2024-03-08T08:13:45;73875.88;;;-149.71;37.17
53916;BME280;39827;49.652;18.770;2024-03-08T08:16:10;73821.63;;;-149.71;36.58
53916;BME280;39827;49.652;18.770;2024-03-08T08:18:36;73731.22;;;-149.71;35.42
53916;BME280;39827;49.652;18.770;2024-03-08T08:21:05;73767.38;;;-149.71;35.82
53916;BME280;39827;49.652;18.770;2024-03-08T08:23:32;73763.38;;;-149.71;35.68
53916;BME280;39827;49.652;18.770;2024-03-08T08:25:57;73777.44;;;-149.71;35.25
53916;BME280;39827;49.652;18.770;2024-03-08T08:28:23;73781.47;;;-149.71;35.28
53916;BME280;39827;49.652;18.770;2024-03-08T08:30:50;73775.44;;;-149.71;35.09
53916;BME280;39827;49.652;18.770;2024-03-08T08:33:15;73753.31;;;-149.71;35.33
53916;BME280;39827;49.652;18.770;2024-03-08T08:35:41;73775.44;;;-149.71;35.23
53916;BME280;39827;49.652;18.770;2024-03-08T08:38:07;73735.25;;;-149.71;34.56
53916;BME280;39827;49.652;18.770;2024-03-08T08:40:34;73701.09;;;-149.71;34.83
53916;BME280;39827;49.652;18.770;2024-03-08T08:43:01;73697.09;;;-149.71;35.07
53916;BME280;39827;49.652;18.770;2024-03-08T08:45:30;73608.69;;;-149.71;33.36
53916;BME280;39827;49.652;18.770;2024-03-08T08:47:55;73610.69;;;-149.71;33.39
53916;BME280;39827;49.652;18.770;2024-03-08T08:50:21;73630.78;;;-149.71;33.69
53916;BME280;39827;49.652;18.770;2024-03-08T08:52:49;73612.72;;;-149.71;33.15
53916;BME280;39827;49.652;18.770;2024-03-08T08:55:15;73564.50;;;-149.71;32.90
53916;BME280;39827;49.652;18.770;2024-03-08T08:57:41;73598.66;;;-149.71;34.62
53916;BME280;39827;49.652;18.770;2024-03-08T09:00:07;73602.66;;;-149.71;34.32
53916;BME280;39827;49.652;18.770;2024-03-08T09:02:33;73550.44;;;-149.71;33.67
53916;BME280;39827;49.652;18.770;2024-03-08T09:04:59;73478.13;;;-149.71;32.76
53916;BME280;39827;49.652;18.770;2024-03-08T09:07:26;73441.97;;;-149.71;32.45
53916;BME280;39827;49.652;18.770;2024-03-08T09:09:53;73464.06;;;-149.71;32.71
53916;BME280;39827;49.652;18.770;2024-03-08T09:12:22;73387.72;;;-149.71;31.63
53916;BME280;39827;49.652;18.770;2024-03-08T09:14:47;73387.72;;;-149.71;31.54
53916;BME280;39827;49.652;18.770;2024-03-08T09:17:13;73462.06;;;-149.71;31.91
53916;BME280;39827;49.652;18.770;2024-03-08T09:19:42;73423.88;;;-149.71;32.45
53916;BME280;39827;49.652;18.770;2024-03-08T09:22:08;73411.84;;;-149.71;32.35
53916;BME280;39827;49.652;18.770;2024-03-08T09:24:33;73389.75;;;-149.71;31.66
53916;BME280;39827;49.652;18.770;2024-03-08T09:26:59;73393.75;;;-149.71;31.63
53916;BME280;39827;49.652;18.770;2024-03-08T09:29:24;73437.94;;;-149.71;32.09
53916;BME280;39827;49.652;18.770;2024-03-08T09:31:49;73383.72;;;-149.71;31.82
53916;BME280;39827;49.652;18.770;2024-03-08T09:34:15;73423.88;;;-149.71;31.61
53916;BME280;39827;49.652;18.770;2024-03-08T09:36:40;73305.38;;;-149.71;31.65
53916;BME280;39827;49.652;18.770;2024-03-08T09:39:06;73363.63;;;-149.71;32.36
53916;BME280;39827;49.652;18.770;2024-03-08T09:41:33;73349.56;;;-149.71;31.47
53916;BME280;39827;49.652;18.770;2024-03-08T09:44:00;73391.75;;;-149.71;32.23
53916;BME280;39827;49.652;18.770;2024-03-08T09:46:25;73335.50;;;-149.71;31.68
53916;BME280;39827;49.652;18.770;2024-03-08T09:48:53;73359.59;;;-149.71;33.10
53916;BME280;39827;49.652;18.770;2024-03-08T09:51:22;73297.34;;;-149.71;31.69
53916;BME280;39827;49.652;18.770;2024-03-08T09:53:50;73359.59;;;-149.71;32.03
53916;BME280;39827;49.652;18.770;2024-03-08T09:56:16;73275.25;;;-149.71;31.28
53916;BME280;39827;49.652;18.770;2024-03-08T09:58:41;73293.31;;;-149.71;31.61
53916;BME280;39827;49.652;18.770;2024-03-08T10:01:33;73363.63;;;-149.71;31.96
53916;BME280;39827;49.652;18.770;2024-03-08T10:03:58;73355.59;;;-149.71;32.34
53916;BME280;39827;49.652;18.770;2024-03-08T10:06:24;73335.50;;;-149.71;31.80
53916;BME280;39827;49.652;18.770;2024-03-08T10:08:50;73277.25;;;-149.71;31.38
53916;BME280;39827;49.652;18.770;2024-03-08T10:11:17;73239.09;;;-149.71;31.02
53916;BME280;39827;49.652;18.770;2024-03-08T10:13:45;73259.19;;;-149.71;31.50
53916;BME280;39827;49.652;18.770;2024-03-08T10:16:12;73321.44;;;-149.71;31.56
53916;BME280;39827;49.652;18.770;2024-03-08T10:18:37;73271.22;;;-149.71;31.27
53916;BME280;39827;49.652;18.770;2024-03-08T10:21:08;73337.50;;;-149.71;32.26
53916;BME280;39827;49.652;18.770;2024-03-08T10:23:35;73329.47;;;-149.71;31.96
53916;BME280;39827;49.652;18.770;2024-03-08T10:26:22;73357.59;;;-149.71;32.26
53916;BME280;39827;49.652;18.770;2024-03-08T10:28:49;73363.63;;;-149.71;32.31
53916;BME280;39827;49.652;18.770;2024-03-08T10:31:15;73427.91;;;-149.71;32.33
53916;BME280;39827;49.652;18.770;2024-03-08T10:33:41;73407.81;;;-149.71;33.37
53916;BME280;39827;49.652;18.770;2024-03-08T10:36:07;73379.69;;;-149.71;32.73
53916;BME280;39827;49.652;18.770;2024-03-08T10:38:39;73355.59;;;-149.71;32.39
53916;BME280;39827;49.652;18.770;2024-03-08T10:41:06;73365.63;;;-149.71;32.30
53916;BME280;39827;49.652;18.770;2024-03-08T10:52:14;73355.59;;;-149.71;32.83
53916;BME280;39827;49.652;18.770;2024-03-08T10:54:40;73415.84;;;-149.71;33.39
53916;BME280;39827;49.652;18.770;2024-03-08T10:57:09;73367.63;;;-149.71;32.47
53916;BME280;39827;49.652;18.770;2024-03-08T10:59:37;73405.81;;;-149.71;34.04
53916;BME280;39827;49.652;18.770;2024-03-08T11:02:04;73456.03;;;-149.71;33.64
53916;BME280;39827;49.652;18.770;2024-03-08T11:04:31;73377.69;;;-149.71;33.18
53916;BME280;39827;49.652;18.770;2024-03-08T11:07:02;73319.44;;;-149.71;32.54
53916;BME280;39827;49.652;18.770;2024-03-08T11:12:25;73351.56;;;-149.71;32.91
53916;BME280;39827;49.652;18.770;2024-03-08T11:14:54;73391.75;;;-149.71;32.77
53916;BME280;39827;49.652;18.770;2024-03-08T11:19:58;73323.44;;;-149.71;33.30
53916;BME280;39827;49.652;18.770;2024-03-08T11:22:32;73259.19;;;-149.71;32.64
53916;BME280;39827;49.652;18.770;2024-03-08T11:25:01;73237.09;;;-149.71;32.10
53916;BME280;39827;49.652;18.770;2024-03-08T11:27:29;73225.03;;;-149.71;31.98
53916;BME280;39827;49.652;18.770;2024-03-08T11:30:00;73251.13;;;-149.71;31.95
53916;BME280;39827;49.652;18.770;2024-03-08T11:32:35;73305.38;;;-149.71;33.28
53916;BME280;39827;49.652;18.770;2024-03-08T11:35:02;73291.31;;;-149.71;33.11
53916;BME280;39827;49.652;18.770;2024-03-08T11:37:33;73265.19;;;-149.71;32.57
53916;BME280;39827;49.652;18.770;2024-03-08T11:40:00;73301.34;;;-149.71;32.62
53916;BME280;39827;49.652;18.770;2024-03-08T11:42:30;73303.38;;;-149.71;32.95
53916;BME280;39827;49.652;18.770;2024-03-08T11:44:56;73357.59;;;-149.71;33.77
53916;BME280;39827;49.652;18.770;2024-03-08T11:47:22;73317.44;;;-149.71;33.14
53916;BME280;39827;49.652;18.770;2024-03-08T11:49:47;73291.31;;;-149.71;33.44
53916;BME280;39827;49.652;18.770;2024-03-08T11:52:15;73283.28;;;-149.71;33.57
53916;BME280;39827;49.652;18.770;2024-03-08T11:54:54;73299.34;;;-149.71;33.90
53916;BME280;39827;49.652;18.770;2024-03-08T11:57:22;73339.53;;;-149.71;33.32
53916;BME280;39827;49.652;18.770;2024-03-08T11:59:52;73273.22;;;-149.71;32.09
53916;BME280;39827;49.652;18.770;2024-03-08T12:02:18;73325.47;;;-149.71;32.57
53916;BME280;39827;49.652;18.770;2024-03-08T12:04:46;73351.56;;;-149.71;34.58
53916;BME280;39827;49.652;18.770;2024-03-08T12:07:12;73319.44;;;-149.71;33.36
53916;BME280;39827;49.652;18.770;2024-03-08T12:09:40;73345.53;;;-149.71;33.68
53916;BME280;39827;49.652;18.770;2024-03-08T12:12:07;73385.72;;;-149.71;34.02
53916;BME280;39827;49.652;18.770;2024-03-08T12:14:35;73395.75;;;-149.71;34.24
53916;BME280;39827;49.652;18.770;2024-03-08T12:17:01;73407.81;;;-149.71;34.78
53916;BME280;39827;49.652;18.770;2024-03-08T12:19:28;73381.69;;;-149.71;34.67
53916;BME280;39827;49.652;18.770;2024-03-08T12:21:54;73470.09;;;-149.71;35.42
53916;BME280;39827;49.652;18.770;2024-03-08T12:24:19;73411.84;;;-149.71;35.04
53916;BME280;39827;49.652;18.770;2024-03-08T12:26:47;73417.88;;;-149.71;35.15
53916;BME280;39827;49.652;18.770;2024-03-08T12:29:18;73369.66;;;-149.71;34.70
53916;BME280;39827;49.652;18.770;2024-03-08T12:31:50;73373.66;;;-149.71;35.16
53916;BME280;39827;49.652;18.770;2024-03-08T12:34:16;73377.69;;;-149.71;34.93
53916;BME280;39827;49.652;18.770;2024-03-08T12:36:50;73361.63;;;-149.71;34.57
53916;BME280;39827;49.652;18.770;2024-03-08T12:39:18;73450.00;;;-149.71;35.14
53916;BME280;39827;49.652;18.770;2024-03-08T12:41:52;73437.94;;;-149.71;35.76